createdAt,value
2024-05-09T00:00:00.605Z,101540
2024-05-09T00:01:00.630Z,101540
2024-05-09T00:02:00.645Z,101540
2024-05-09T00:03:00.644Z,101540
2024-05-09T00:04:00.777Z,101540
2024-05-09T00:05:00.811Z,101540
2024-05-09T00:06:00.861Z,101540
2024-05-09T00:07:00.570Z,101540
2024-05-09T00:08:00.662Z,101540
2024-05-09T00:09:00.609Z,101540
2024-05-09T00:10:01.080Z,101540
2024-05-09T00:11:00.720Z,101540
2024-05-09T00:12:00.772Z,101540
2024-05-09T00:13:00.990Z,101540
2024-05-09T00:14:00.969Z,101540
2024-05-09T00:15:00.580Z,101540
2024-05-09T00:16:00.623Z,101540
2024-05-09T00:17:00.642Z,101540
2024-05-09T00:18:00.926Z,101540
2024-05-09T00:19:00.656Z,101540
2024-05-09T00:20:00.725Z,101540
2024-05-09T00:21:03.005Z,101540
2024-05-09T00:22:00.607Z,101540
2024-05-09T00:23:00.653Z,101540
2024-05-09T00:24:00.582Z,101540
2024-05-09T00:25:00.578Z,101540
2024-05-09T00:26:00.658Z,101540
2024-05-09T00:27:00.572Z,101550
2024-05-09T00:28:00.689Z,101550
2024-05-09T00:29:00.626Z,101550
2024-05-09T00:30:00.647Z,101550
2024-05-09T00:31:01.357Z,101550
2024-05-09T00:32:00.757Z,101550
2024-05-09T00:33:00.872Z,101550
2024-05-09T00:34:00.938Z,101550
2024-05-09T00:35:00.709Z,101540
2024-05-09T00:36:00.659Z,101540
2024-05-09T00:37:00.600Z,101540
2024-05-09T00:38:01.018Z,101540
2024-05-09T00:39:00.613Z,101540
2024-05-09T00:40:00.591Z,101540
2024-05-09T00:41:00.657Z,101540
2024-05-09T00:42:00.668Z,101540
2024-05-09T00:43:00.645Z,101540
2024-05-09T00:44:00.670Z,101540
2024-05-09T00:45:00.620Z,101540
2024-05-09T00:46:00.835Z,101540
2024-05-09T00:47:00.608Z,101540
2024-05-09T00:48:01.907Z,101540
2024-05-09T00:49:00.780Z,101540
2024-05-09T00:50:01.432Z,101540
2024-05-09T00:51:01.012Z,101540
2024-05-09T00:52:01.045Z,101540
2024-05-09T00:53:00.852Z,101540
2024-05-09T00:54:00.906Z,101540
2024-05-09T00:55:00.663Z,101540
2024-05-09T00:56:00.745Z,101540
2024-05-09T00:57:01.803Z,101540
2024-05-09T00:58:01.084Z,101540
2024-05-09T00:59:01.415Z,101540
2024-05-09T01:00:00.612Z,101540
2024-05-09T01:01:01.568Z,101540
2024-05-09T01:02:00.696Z,101540
2024-05-09T01:03:00.786Z,101540
2024-05-09T01:04:01.397Z,101540
2024-05-09T01:05:00.983Z,101540
2024-05-09T01:06:00.617Z,101540
2024-05-09T01:07:00.605Z,101540
2024-05-09T01:08:01.099Z,101540
2024-05-09T01:09:00.617Z,101550
2024-05-09T01:10:00.584Z,101550
2024-05-09T01:11:00.812Z,101540
2024-05-09T01:12:00.823Z,101540
2024-05-09T01:13:00.637Z,101540
2024-05-09T01:14:00.673Z,101540
2024-05-09T01:15:00.675Z,101550
2024-05-09T01:16:01.290Z,101550
2024-05-09T01:17:00.668Z,101550
2024-05-09T01:18:04.654Z,101550
2024-05-09T01:19:02.810Z,101550
2024-05-09T01:20:00.697Z,101550
2024-05-09T01:21:00.633Z,101560
2024-05-09T01:22:00.611Z,101560
2024-05-09T01:23:05.084Z,101560
2024-05-09T01:24:00.562Z,101560
2024-05-09T01:25:00.579Z,101560
2024-05-09T01:26:00.710Z,101560
2024-05-09T01:27:00.610Z,101560
2024-05-09T01:28:00.604Z,101560
2024-05-09T01:29:00.712Z,101560
2024-05-09T01:30:00.722Z,101560
2024-05-09T01:31:00.565Z,101560
2024-05-09T01:32:00.823Z,101560
2024-05-09T01:33:01.046Z,101560
2024-05-09T01:34:00.794Z,101560
2024-05-09T01:35:00.627Z,101560
2024-05-09T01:36:00.996Z,101560
2024-05-09T01:37:00.588Z,101550
2024-05-09T01:38:00.686Z,101550
2024-05-09T01:39:00.615Z,101550
2024-05-09T01:40:00.610Z,101550
2024-05-09T01:41:00.596Z,101550
2024-05-09T01:42:00.610Z,101550
2024-05-09T01:43:00.569Z,101550
2024-05-09T01:44:00.679Z,101550
2024-05-09T01:45:00.708Z,101550
2024-05-09T01:46:00.720Z,101550
2024-05-09T01:47:00.678Z,101550
2024-05-09T01:48:01.166Z,101550
2024-05-09T01:49:00.696Z,101550
2024-05-09T01:50:00.917Z,101550
2024-05-09T01:51:00.709Z,101550
2024-05-09T01:52:00.649Z,101550
2024-05-09T01:53:00.668Z,101550
2024-05-09T01:54:01.284Z,101550
2024-05-09T01:55:04.507Z,101550
2024-05-09T01:56:00.632Z,101550
2024-05-09T01:57:00.578Z,101550
2024-05-09T01:58:00.577Z,101550
2024-05-09T01:59:00.679Z,101550
2024-05-09T02:00:00.694Z,101550
2024-05-09T02:01:00.689Z,101550
2024-05-09T02:02:00.922Z,101550
2024-05-09T02:03:00.937Z,101550
2024-05-09T02:04:00.752Z,101550
2024-05-09T02:05:00.793Z,101560
2024-05-09T02:06:00.686Z,101560
2024-05-09T02:07:00.631Z,101560
2024-05-09T02:08:00.958Z,101560
2024-05-09T02:09:00.591Z,101560
2024-05-09T02:10:00.569Z,101560
2024-05-09T02:11:00.852Z,101570
2024-05-09T02:12:01.003Z,101570
2024-05-09T02:13:00.560Z,101570
2024-05-09T02:14:00.658Z,101570
2024-05-09T02:15:00.602Z,101570
2024-05-09T02:16:00.563Z,101570
2024-05-09T02:17:00.630Z,101570
2024-05-09T02:18:01.065Z,101570
2024-05-09T02:19:00.616Z,101560
2024-05-09T02:20:00.692Z,101560
2024-05-09T02:21:00.860Z,101570
2024-05-09T02:22:00.716Z,101570
2024-05-09T02:23:00.696Z,101570
2024-05-09T02:24:00.550Z,101570
2024-05-09T02:25:00.567Z,101570
2024-05-09T02:26:00.726Z,101570
2024-05-09T02:27:00.614Z,101560
2024-05-09T02:28:00.803Z,101560
2024-05-09T02:29:00.632Z,101560
2024-05-09T02:30:00.688Z,101560
2024-05-09T02:31:00.608Z,101560
2024-05-09T02:32:00.719Z,101560
2024-05-09T02:33:00.916Z,101560
2024-05-09T02:34:00.869Z,101560
2024-05-09T02:35:00.636Z,101560
2024-05-09T02:36:00.605Z,101560
2024-05-09T02:37:00.620Z,101560
2024-05-09T02:38:00.865Z,101560
2024-05-09T02:39:00.593Z,101560
2024-05-09T02:40:00.604Z,101560
2024-05-09T02:41:01.050Z,101560
2024-05-09T02:42:00.602Z,101560
2024-05-09T02:43:00.612Z,101560
2024-05-09T02:44:00.613Z,101560
2024-05-09T02:45:00.583Z,101550
2024-05-09T02:46:00.720Z,101550
2024-05-09T02:47:00.584Z,101550
2024-05-09T02:48:01.718Z,101550
2024-05-09T02:49:00.745Z,101550
2024-05-09T02:50:00.639Z,101550
2024-05-09T02:51:00.674Z,101550
2024-05-09T02:52:00.573Z,101550
2024-05-09T02:53:00.692Z,101550
2024-05-09T02:54:00.592Z,101550
2024-05-09T02:55:00.589Z,101550
2024-05-09T02:56:00.724Z,101550
2024-05-09T02:57:00.580Z,101550
2024-05-09T02:58:00.709Z,101550
2024-05-09T02:59:00.713Z,101550
2024-05-09T03:00:00.644Z,101550
2024-05-09T03:01:00.671Z,101550
2024-05-09T03:02:00.745Z,101550
2024-05-09T03:03:01.033Z,101550
2024-05-09T03:04:00.690Z,101550
2024-05-09T03:05:00.682Z,101550
2024-05-09T03:06:01.265Z,101550
2024-05-09T03:07:00.570Z,101550
2024-05-09T03:08:00.692Z,101550
2024-05-09T03:09:00.588Z,101550
2024-05-09T03:10:00.652Z,101550
2024-05-09T03:11:00.628Z,101560
2024-05-09T03:12:00.745Z,101560
2024-05-09T03:13:04.387Z,101560
2024-05-09T03:14:01.007Z,101560
2024-05-09T03:15:00.577Z,101560
2024-05-09T03:16:00.566Z,101560
2024-05-09T03:17:00.595Z,101560
2024-05-09T03:18:01.075Z,101560
2024-05-09T03:19:00.641Z,101560
2024-05-09T03:20:01.565Z,101560
2024-05-09T03:21:00.981Z,101560
2024-05-09T03:22:00.593Z,101560
2024-05-09T03:23:00.758Z,101560
2024-05-09T03:24:00.580Z,101560
2024-05-09T03:25:00.629Z,101560
2024-05-09T03:26:00.644Z,101560
2024-05-09T03:27:00.585Z,101560
2024-05-09T03:28:00.592Z,101560
2024-05-09T03:29:00.635Z,101560
2024-05-09T03:30:00.607Z,101560
2024-05-09T03:31:00.561Z,101570
2024-05-09T03:32:00.726Z,101570
2024-05-09T03:33:00.869Z,101560
2024-05-09T03:34:00.755Z,101560
2024-05-09T03:35:00.598Z,101570
2024-05-09T03:36:01.441Z,101570
2024-05-09T03:37:00.584Z,101570
2024-05-09T03:38:00.622Z,101570
2024-05-09T03:39:00.597Z,101570
2024-05-09T03:40:00.723Z,101570
2024-05-09T03:41:00.709Z,101570
2024-05-09T03:42:00.590Z,101570
2024-05-09T03:43:00.586Z,101570
2024-05-09T03:44:00.657Z,101570
2024-05-09T03:45:00.597Z,101570
2024-05-09T03:46:00.577Z,101570
2024-05-09T03:47:00.687Z,101580
2024-05-09T03:48:00.843Z,101580
2024-05-09T03:49:00.792Z,101580
2024-05-09T03:50:00.722Z,101580
2024-05-09T03:51:00.679Z,101580
2024-05-09T03:52:00.604Z,101580
2024-05-09T03:53:01.211Z,101580
2024-05-09T03:54:00.581Z,101580
2024-05-09T03:55:00.569Z,101580
2024-05-09T03:56:00.676Z,101580
2024-05-09T03:57:00.813Z,101580
2024-05-09T03:58:00.637Z,101580
2024-05-09T03:59:00.655Z,101580
2024-05-09T04:00:00.582Z,101580
2024-05-09T04:01:00.647Z,101580
2024-05-09T04:02:00.726Z,101580
2024-05-09T04:03:00.846Z,101580
2024-05-09T04:04:00.655Z,101580
2024-05-09T04:05:00.648Z,101580
2024-05-09T04:06:00.605Z,101580
2024-05-09T04:07:00.583Z,101580
2024-05-09T04:08:00.778Z,101580
2024-05-09T04:09:00.595Z,101580
2024-05-09T04:10:00.645Z,101580
2024-05-09T04:11:00.749Z,101580
2024-05-09T04:12:00.697Z,101580
2024-05-09T04:13:01.055Z,101580
2024-05-09T04:14:00.659Z,101580
2024-05-09T04:15:00.691Z,101590
2024-05-09T04:16:00.559Z,101590
2024-05-09T04:17:00.619Z,101590
2024-05-09T04:18:01.698Z,101590
2024-05-09T04:19:00.668Z,101590
2024-05-09T04:20:00.807Z,101590
2024-05-09T04:21:02.067Z,101590
2024-05-09T04:22:00.610Z,101590
2024-05-09T04:23:00.662Z,101590
2024-05-09T04:24:00.579Z,101590
2024-05-09T04:25:00.613Z,101590
2024-05-09T04:26:00.763Z,101590
2024-05-09T04:27:00.684Z,101590
2024-05-09T04:28:00.617Z,101590
2024-05-09T04:29:00.632Z,101590
2024-05-09T04:30:00.646Z,101590
2024-05-09T04:31:00.582Z,101600
2024-05-09T04:32:00.740Z,101600
2024-05-09T04:33:01.073Z,101600
2024-05-09T04:34:00.749Z,101600
2024-05-09T04:35:00.633Z,101600
2024-05-09T04:36:00.636Z,101600
2024-05-09T04:37:01.474Z,101600
2024-05-09T04:38:00.860Z,101600
2024-05-09T04:39:00.560Z,101610
2024-05-09T04:40:00.576Z,101610
2024-05-09T04:41:00.623Z,101610
2024-05-09T04:42:00.566Z,101610
2024-05-09T04:43:00.585Z,101610
2024-05-09T04:44:00.627Z,101610
2024-05-09T04:45:00.565Z,101610
2024-05-09T04:46:00.598Z,101610
2024-05-09T04:47:00.626Z,101610
2024-05-09T04:48:01.508Z,101610
2024-05-09T04:49:00.887Z,101610
2024-05-09T04:50:00.655Z,101610
2024-05-09T04:51:00.693Z,101610
2024-05-09T04:52:00.571Z,101610
2024-05-09T04:53:00.623Z,101610
2024-05-09T04:54:00.672Z,101610
2024-05-09T04:55:00.600Z,101610
2024-05-09T04:56:00.724Z,101610
2024-05-09T04:57:00.587Z,101610
2024-05-09T04:58:00.622Z,101610
2024-05-09T04:59:00.699Z,101610
2024-05-09T05:00:00.627Z,101610
2024-05-09T05:01:00.703Z,101610
2024-05-09T05:02:00.804Z,101610
2024-05-09T05:03:00.751Z,101620
2024-05-09T05:04:00.841Z,101620
2024-05-09T05:05:00.697Z,101630
2024-05-09T05:06:00.673Z,101630
2024-05-09T05:07:02.871Z,101630
2024-05-09T05:08:00.634Z,101630
2024-05-09T05:09:00.609Z,101630
2024-05-09T05:10:00.627Z,101630
2024-05-09T05:11:00.805Z,101630
2024-05-09T05:12:01.019Z,101630
2024-05-09T05:13:00.595Z,101630
2024-05-09T05:14:00.714Z,101630
2024-05-09T05:15:00.609Z,101630
2024-05-09T05:16:00.587Z,101630
2024-05-09T05:17:00.723Z,101630
2024-05-09T05:18:00.979Z,101630
2024-05-09T05:19:00.715Z,101630
2024-05-09T05:20:00.888Z,101630
2024-05-09T05:21:00.850Z,101630
2024-05-09T05:22:00.631Z,101630
2024-05-09T05:23:01.035Z,101630
2024-05-09T05:24:00.630Z,101630
2024-05-09T05:25:00.634Z,101620
2024-05-09T05:26:00.642Z,101620
2024-05-09T05:27:00.597Z,101620
2024-05-09T05:28:00.652Z,101620
2024-05-09T05:29:00.736Z,101630
2024-05-09T05:30:00.637Z,101630
2024-05-09T05:31:00.592Z,101630
2024-05-09T05:32:00.815Z,101630
2024-05-09T05:33:00.967Z,101630
2024-05-09T05:34:00.671Z,101630
2024-05-09T05:35:00.795Z,101630
2024-05-09T05:36:00.573Z,101630
2024-05-09T05:37:00.596Z,101630
2024-05-09T05:38:00.871Z,101630
2024-05-09T05:39:00.616Z,101640
2024-05-09T05:40:00.600Z,101640
2024-05-09T05:41:02.960Z,101640
2024-05-09T05:42:00.601Z,101640
2024-05-09T05:43:00.603Z,101640
2024-05-09T05:44:00.670Z,101640
2024-05-09T05:45:00.633Z,101640
2024-05-09T05:46:00.597Z,101640
2024-05-09T05:47:00.578Z,101640
2024-05-09T05:48:02.181Z,101640
2024-05-09T05:49:00.690Z,101640
2024-05-09T05:50:00.856Z,101640
2024-05-09T05:53:00.701Z,101640
2024-05-09T05:54:00.562Z,101640
2024-05-09T05:55:00.572Z,101630
2024-05-09T05:56:00.702Z,101630
2024-05-09T05:57:00.589Z,101640
2024-05-09T05:58:00.873Z,101640
2024-05-09T05:59:00.670Z,101640
2024-05-09T06:00:00.614Z,101640
2024-05-09T06:01:00.726Z,101640
2024-05-09T06:02:00.629Z,101640
2024-05-09T06:03:00.888Z,101640
2024-05-09T06:04:00.713Z,101640
2024-05-09T06:05:01.086Z,101640
2024-05-09T06:06:01.946Z,101640
2024-05-09T06:07:00.679Z,101650
2024-05-09T06:08:01.099Z,101650
2024-05-09T06:09:00.577Z,101650
2024-05-09T06:10:00.643Z,101650
2024-05-09T06:11:01.483Z,101650
2024-05-09T06:12:00.816Z,101650
2024-05-09T06:13:00.575Z,101650
2024-05-09T06:14:00.711Z,101650
2024-05-09T06:15:00.585Z,101650
2024-05-09T06:16:00.599Z,101650
2024-05-09T06:17:00.676Z,101660
2024-05-09T06:18:01.071Z,101660
2024-05-09T06:19:00.752Z,101660
2024-05-09T06:20:00.666Z,101660
2024-05-09T06:21:01.088Z,101660
2024-05-09T06:22:00.576Z,101660
2024-05-09T06:23:00.761Z,101660
2024-05-09T06:24:02.597Z,101660
2024-05-09T06:25:00.589Z,101660
2024-05-09T06:26:00.699Z,101660
2024-05-09T06:27:00.581Z,101660
2024-05-09T06:28:00.721Z,101660
2024-05-09T06:29:00.630Z,101660
2024-05-09T06:30:00.621Z,101660
2024-05-09T06:31:01.637Z,101660
2024-05-09T06:32:00.872Z,101660
2024-05-09T06:33:00.781Z,101660
2024-05-09T06:34:00.819Z,101660
2024-05-09T06:35:00.654Z,101650
2024-05-09T06:36:00.653Z,101650
2024-05-09T06:37:00.656Z,101650
2024-05-09T06:38:00.721Z,101650
2024-05-09T06:39:00.570Z,101660
2024-05-09T06:40:00.591Z,101660
2024-05-09T06:41:00.681Z,101660
2024-05-09T06:42:00.626Z,101660
2024-05-09T06:43:00.627Z,101660
2024-05-09T06:44:00.724Z,101660
2024-05-09T06:45:00.671Z,101650
2024-05-09T06:46:00.600Z,101650
2024-05-09T06:47:00.728Z,101660
2024-05-09T06:48:01.061Z,101660
2024-05-09T06:49:00.835Z,101650
2024-05-09T06:50:00.728Z,101650
2024-05-09T06:51:00.657Z,101650
2024-05-09T06:52:00.580Z,101650
2024-05-09T06:53:00.754Z,101650
2024-05-09T06:54:00.661Z,101650
2024-05-09T06:55:00.571Z,101660
2024-05-09T06:56:00.628Z,101660
2024-05-09T06:57:00.603Z,101650
2024-05-09T06:58:00.775Z,101650
2024-05-09T06:59:01.201Z,101650
2024-05-09T07:00:00.721Z,101650
2024-05-09T07:01:00.735Z,101660
2024-05-09T07:02:01.296Z,101660
2024-05-09T07:03:05.597Z,101660
2024-05-09T07:04:00.678Z,101660
2024-05-09T07:05:00.870Z,101660
2024-05-09T07:06:00.679Z,101660
2024-05-09T07:07:00.597Z,101660
2024-05-09T07:08:00.707Z,101660
2024-05-09T07:09:00.626Z,101660
2024-05-09T07:10:00.602Z,101660
2024-05-09T07:11:00.687Z,101660
2024-05-09T07:12:00.726Z,101660
2024-05-09T07:13:00.602Z,101660
2024-05-09T07:14:00.624Z,101660
2024-05-09T07:20:02.496Z,101670
2024-05-09T07:21:01.315Z,101670
2024-05-09T07:22:00.348Z,101670
2024-05-09T07:23:01.239Z,101670
2024-05-09T07:24:00.377Z,101670
2024-05-09T07:25:00.360Z,101660
2024-05-09T07:26:00.416Z,101660
2024-05-09T07:27:00.336Z,101660
2024-05-09T07:28:00.341Z,101660
2024-05-09T07:29:00.348Z,101660
2024-05-09T07:30:00.339Z,101660
2024-05-09T07:31:00.339Z,101660
2024-05-09T07:32:00.367Z,101660
2024-05-09T07:33:00.744Z,101660
2024-05-09T07:34:00.684Z,101660
2024-05-09T07:35:00.369Z,101660
2024-05-09T07:36:00.358Z,101660
2024-05-09T07:37:00.381Z,101660
2024-05-09T07:38:00.475Z,101660
2024-05-09T07:39:00.333Z,101670
2024-05-09T07:40:00.343Z,101670
2024-05-09T07:41:01.891Z,101660
2024-05-09T07:42:00.345Z,101660
2024-05-09T07:43:02.031Z,101670
2024-05-09T07:44:00.394Z,101670
2024-05-09T07:45:17.759Z,101660
2024-05-09T07:50:35.930Z,101660
2024-05-09T07:51:47.485Z,101660
2024-05-09T07:53:00.932Z,101660
2024-05-09T07:53:26.821Z,101660
2024-05-09T07:53:35.996Z,101660
2024-05-09T07:54:01.513Z,101660
2024-05-09T07:55:00.796Z,101670
2024-05-09T07:56:00.608Z,101670
2024-05-09T07:57:00.478Z,101670
2024-05-09T07:58:00.341Z,101670
2024-05-09T07:59:00.368Z,101670
2024-05-09T08:00:00.338Z,101670
2024-05-09T08:01:00.540Z,101660
2024-05-09T08:02:00.593Z,101660
2024-05-09T08:03:00.403Z,101660
2024-05-09T08:04:00.507Z,101660
2024-05-09T08:05:00.524Z,101660
2024-05-09T08:06:00.348Z,101660
2024-05-09T08:07:00.388Z,101660
2024-05-09T08:08:00.343Z,101660
2024-05-09T08:09:05.284Z,101660
2024-05-09T08:11:00.915Z,101660
2024-05-09T08:12:00.335Z,101660
2024-05-09T08:13:00.348Z,101660
2024-05-09T08:14:00.380Z,101660
2024-05-09T08:15:00.332Z,101660
2024-05-09T08:16:00.691Z,101660
2024-05-09T08:17:00.383Z,101660
2024-05-09T08:18:00.745Z,101660
2024-05-09T08:19:00.665Z,101660
2024-05-09T08:20:01.998Z,101660
2024-05-09T08:21:00.886Z,101660
2024-05-09T08:22:00.361Z,101660
2024-05-09T08:23:00.354Z,101660
2024-05-09T08:24:00.330Z,101660
2024-05-09T08:25:00.514Z,101660
2024-05-09T08:26:00.314Z,101660
2024-05-09T08:27:00.572Z,101660
2024-05-09T08:28:02.386Z,101660
2024-05-09T08:29:00.401Z,101660
2024-05-09T08:33:00.438Z,101650
2024-05-09T08:34:00.494Z,101660
2024-05-09T08:35:00.434Z,101660
2024-05-09T08:36:00.343Z,101650
2024-05-09T08:37:06.104Z,101650
2024-05-09T08:38:02.448Z,101660
2024-05-09T08:39:00.462Z,101660
2024-05-09T08:40:00.500Z,101660
2024-05-09T08:41:02.460Z,101660
2024-05-09T08:43:01.459Z,101660
2024-05-09T08:44:01.286Z,101660
2024-05-09T08:45:00.568Z,101660
2024-05-09T08:46:00.932Z,101660
2024-05-09T08:47:01.377Z,101660
2024-05-09T08:48:01.232Z,101660
2024-05-09T08:49:02.015Z,101660
2024-05-09T08:50:01.802Z,101660
2024-05-09T08:51:00.364Z,101650
2024-05-09T08:52:00.418Z,101650
2024-05-09T08:53:00.387Z,101660
2024-05-09T08:54:00.415Z,101660
2024-05-09T08:55:00.416Z,101660
2024-05-09T08:56:00.854Z,101660
2024-05-09T08:57:01.190Z,101660
2024-05-09T09:00:03.485Z,101660
2024-05-09T09:03:01.329Z,101660
2024-05-09T09:04:01.400Z,101650
2024-05-09T09:05:04.798Z,101650
2024-05-09T09:06:01.235Z,101650
2024-05-09T09:14:00.373Z,101650
2024-05-09T09:15:00.385Z,101650
2024-05-09T09:16:00.569Z,101650
2024-05-09T09:17:10.333Z,101650
2024-05-09T09:18:00.967Z,101650
2024-05-09T09:23:00.348Z,101650
2024-05-09T09:24:00.360Z,101650
2024-05-09T09:25:00.402Z,101650
2024-05-09T09:26:00.500Z,101650
2024-05-09T09:27:00.413Z,101650
2024-05-09T09:28:00.555Z,101650
2024-05-09T09:29:00.374Z,101650
2024-05-09T09:30:00.361Z,101650
2024-05-09T09:31:00.955Z,101650
2024-05-09T09:32:00.909Z,101650
2024-05-09T09:33:00.509Z,101650
2024-05-09T09:34:04.683Z,101650
2024-05-09T09:35:00.423Z,101650
2024-05-09T09:36:01.521Z,101650
2024-05-09T09:37:03.569Z,101650
2024-05-09T09:38:01.101Z,101650
2024-05-09T09:39:01.207Z,101650
2024-05-09T09:40:02.006Z,101650
2024-05-09T09:41:03.751Z,101650
2024-05-09T09:42:01.327Z,101650
2024-05-09T09:43:00.622Z,101650
2024-05-09T09:44:01.542Z,101650
2024-05-09T09:49:00.630Z,101660
2024-05-09T09:50:00.741Z,101660
2024-05-09T09:51:00.681Z,101660
2024-05-09T09:52:00.572Z,101650
2024-05-09T09:53:00.495Z,101650
2024-05-09T09:54:02.512Z,101660
2024-05-09T09:55:00.791Z,101660
2024-05-09T09:56:00.695Z,101660
2024-05-09T09:57:03.224Z,101660
2024-05-09T09:58:02.580Z,101660
2024-05-09T09:59:02.953Z,101660
2024-05-09T10:00:00.496Z,101650
2024-05-09T10:01:02.562Z,101650
2024-05-09T10:02:00.504Z,101660
2024-05-09T10:03:01.469Z,101660
2024-05-09T10:04:01.081Z,101660
2024-05-09T10:05:00.646Z,101660
2024-05-09T10:06:01.162Z,101650
2024-05-09T10:07:03.264Z,101650
2024-05-09T10:08:02.989Z,101650
2024-05-09T10:09:00.409Z,101650
2024-05-09T10:10:00.545Z,101660
2024-05-09T10:11:02.207Z,101660
2024-05-09T10:12:09.590Z,101660
2024-05-09T10:14:00.692Z,101650
2024-05-09T10:15:06.011Z,101650
2024-05-09T10:16:06.168Z,101650
2024-05-09T10:17:02.971Z,101650
2024-05-09T10:18:03.279Z,101650
2024-05-09T10:19:00.939Z,101650
2024-05-09T10:20:05.454Z,101650
2024-05-09T10:21:00.992Z,101650
2024-05-09T10:22:01.346Z,101650
2024-05-09T10:23:00.472Z,101650
2024-05-09T10:24:02.144Z,101650
2024-05-09T10:25:05.082Z,101650
2024-05-09T10:26:01.403Z,101650
2024-05-09T10:27:02.662Z,101650
2024-05-09T10:28:00.418Z,101650
2024-05-09T10:29:20.495Z,101650
2024-05-09T10:30:01.303Z,101650
2024-05-09T10:31:06.353Z,101650
2024-05-09T10:32:00.761Z,101650
2024-05-09T10:33:00.436Z,101650
2024-05-09T10:34:00.699Z,101640
2024-05-09T10:36:01.979Z,101650
2024-05-09T10:37:02.041Z,101650
2024-05-09T10:38:04.404Z,101650
2024-05-09T10:39:00.554Z,101650
2024-05-09T10:40:00.693Z,101640
2024-05-09T10:41:01.114Z,101640
2024-05-09T10:42:00.468Z,101640
2024-05-09T10:43:04.701Z,101640
2024-05-09T10:44:00.407Z,101640
2024-05-09T10:45:00.590Z,101640
2024-05-09T10:46:00.414Z,101640
2024-05-09T10:47:00.439Z,101640
2024-05-09T10:48:00.628Z,101630
2024-05-09T10:49:03.361Z,101630
2024-05-09T10:50:00.620Z,101630
2024-05-09T10:51:00.421Z,101630
2024-05-09T10:52:02.318Z,101630
2024-05-09T10:53:01.188Z,101630
2024-05-09T10:54:00.396Z,101630
2024-05-09T10:55:01.685Z,101630
2024-05-09T10:56:00.676Z,101630
2024-05-09T10:57:00.372Z,101630
2024-05-09T10:58:00.519Z,101630
2024-05-09T10:59:03.054Z,101630
2024-05-09T11:00:00.385Z,101620
2024-05-09T11:01:03.391Z,101620
2024-05-09T11:02:03.168Z,101620
2024-05-09T11:03:00.506Z,101620
2024-05-09T11:04:00.657Z,101610
2024-05-09T11:05:00.473Z,101610
2024-05-09T11:06:00.363Z,101610
2024-05-09T11:07:05.425Z,101610
2024-05-09T11:08:00.488Z,101610
2024-05-09T11:09:00.538Z,101610
2024-05-09T11:10:00.567Z,101610
2024-05-09T11:11:01.517Z,101610
2024-05-09T11:12:01.223Z,101610
2024-05-09T11:13:00.536Z,101610
2024-05-09T11:14:10.142Z,101600
2024-05-09T11:15:00.393Z,101600
2024-05-09T11:16:01.425Z,101600
2024-05-09T11:17:01.044Z,101600
2024-05-09T11:18:00.518Z,101600
2024-05-09T11:19:00.642Z,101600
2024-05-09T11:20:00.590Z,101610
2024-05-09T11:21:00.715Z,101610
2024-05-09T11:22:00.426Z,101600
2024-05-09T11:23:04.302Z,101600
2024-05-09T11:24:00.403Z,101600
2024-05-09T11:25:00.559Z,101600
2024-05-09T11:26:00.649Z,101610
2024-05-09T11:27:01.603Z,101610
2024-05-09T11:28:00.838Z,101600
2024-05-09T11:29:00.385Z,101600
2024-05-09T11:30:00.400Z,101600
2024-05-09T11:31:03.718Z,101600
2024-05-09T11:32:00.419Z,101600
2024-05-09T11:33:00.605Z,101600
2024-05-09T11:34:00.387Z,101600
2024-05-09T11:35:00.357Z,101600
2024-05-09T11:36:00.386Z,101590
2024-05-09T11:37:00.477Z,101590
2024-05-09T11:38:00.383Z,101590
2024-05-09T11:39:00.376Z,101590
2024-05-09T11:40:00.461Z,101590
2024-05-09T11:41:01.402Z,101590
2024-05-09T11:42:00.411Z,101590
2024-05-09T11:43:00.421Z,101590
2024-05-09T11:44:00.538Z,101590
2024-05-09T11:45:00.390Z,101590
2024-05-09T11:46:01.238Z,101590
2024-05-09T11:47:01.203Z,101590
2024-05-09T11:48:00.660Z,101590
2024-05-09T11:49:00.639Z,101590
2024-05-09T11:50:00.548Z,101590
2024-05-09T11:51:00.370Z,101590
2024-05-09T11:52:00.580Z,101590
2024-05-09T11:53:00.394Z,101590
2024-05-09T11:54:00.472Z,101580
2024-05-09T11:55:00.416Z,101580
2024-05-09T11:56:00.385Z,101580
2024-05-09T11:57:00.422Z,101580
2024-05-09T11:58:01.325Z,101580
2024-05-09T11:59:00.410Z,101580
2024-05-09T12:00:00.388Z,101570
2024-05-09T12:01:00.534Z,101570
2024-05-09T12:02:00.469Z,101570
2024-05-09T12:03:00.421Z,101570
2024-05-09T12:04:00.780Z,101570
2024-05-09T12:05:00.527Z,101570
2024-05-09T12:06:00.657Z,101570
2024-05-09T12:07:00.524Z,101570
2024-05-09T12:08:00.430Z,101570
2024-05-09T12:09:00.386Z,101570
2024-05-09T12:10:00.589Z,101570
2024-05-09T12:11:00.589Z,101570
2024-05-09T12:12:00.395Z,101570
2024-05-09T12:13:00.478Z,101570
2024-05-09T12:14:00.447Z,101570
2024-05-09T12:15:00.424Z,101570
2024-05-09T12:16:00.477Z,101570
2024-05-09T12:17:00.448Z,101570
2024-05-09T12:18:03.506Z,101570
2024-05-09T12:19:00.708Z,101570
2024-05-09T12:20:00.406Z,101560
2024-05-09T12:21:00.775Z,101560
2024-05-09T12:22:00.440Z,101560
2024-05-09T12:23:00.376Z,101560
2024-05-09T12:24:00.373Z,101560
2024-05-09T12:25:00.481Z,101560
2024-05-09T12:26:00.539Z,101560
2024-05-09T12:27:00.387Z,101560
2024-05-09T12:28:00.801Z,101550
2024-05-09T12:29:00.379Z,101550
2024-05-09T12:30:00.404Z,101560
2024-05-09T12:31:00.433Z,101560
2024-05-09T12:32:00.390Z,101550
2024-05-09T12:33:00.508Z,101550
2024-05-09T12:34:00.491Z,101550
2024-05-09T12:35:00.407Z,101550
2024-05-09T12:36:00.527Z,101550
2024-05-09T12:37:00.443Z,101550
2024-05-09T12:38:00.544Z,101550
2024-05-09T12:39:00.958Z,101550
2024-05-09T12:40:00.390Z,101550
2024-05-09T12:41:01.295Z,101550
2024-05-09T12:42:00.393Z,101550
2024-05-09T12:43:00.470Z,101550
2024-05-09T12:44:00.766Z,101550
2024-05-09T12:45:00.416Z,101550
2024-05-09T12:46:00.533Z,101550
2024-05-09T12:47:00.413Z,101550
2024-05-09T12:48:00.608Z,101540
2024-05-09T12:50:00.671Z,101540
2024-05-09T12:51:00.389Z,101540
2024-05-09T12:52:00.387Z,101540
2024-05-09T12:53:00.724Z,101540
2024-05-09T12:54:00.391Z,101540
2024-05-09T12:55:00.509Z,101540
2024-05-09T12:56:02.514Z,101540
2024-05-09T12:57:00.457Z,101540
2024-05-09T12:58:00.536Z,101540
2024-05-09T12:59:00.372Z,101540
2024-05-09T13:00:00.427Z,101530
2024-05-09T13:01:00.718Z,101530
2024-05-09T13:02:01.213Z,101540
2024-05-09T13:03:01.135Z,101540
2024-05-09T13:04:00.598Z,101530
2024-05-09T13:05:00.398Z,101530